Time;durP1;ratioP1;P1;durP2;ratioP2;P2;SDS_P1;SDS_P2;PMS_P1;PMS_P2;Temp;Humidity;BMP_temperature;BMP_pressure;BME280_temperature;BME280_humidity;BME280_pressure;Samples;Min_cycle;Max_cycle;Signal;HPM_P1;HPM_P2
2022/12/17 13:06:14;;;;;;;19.70;12.47;;;;;;;;;;4405851;32;318733;-90
2022/12/17 13:08:42;;;;;;;28.07;18.93;;;;;;;;;;4418428;32;318825;-96
2022/12/17 13:11:28;;;;;;;21.00;14.40;;;;;;;;;;4406422;32;319215;-93
2022/12/17 13:14:01;;;;;;;23.07;14.93;;;;;;;;;;4406843;32;338863;-94
2022/12/17 13:16:49;;;;;;;28.73;19.00;;;;;;;;;;4417810;32;318992;-86
2022/12/17 13:19:31;;;;;;;55.27;35.73;;;;;;;;;;4403863;32;419907;-91
2022/12/17 13:22:27;;;;;;;132.37;73.77;;;;;;;;;;4406072;32;318719;-91
2022/12/17 13:24:56;;;;;;;72.17;45.17;;;;;;;;;;4406479;32;320107;-90
2022/12/17 13:27:30;;;;;;;51.00;30.10;;;;;;;;;;4416773;32;318749;-92
2022/12/17 13:29:58;;;;;;;30.20;21.93;;;;;;;;;;4406106;32;318714;-94
2022/12/17 13:32:33;;;;;;;37.40;27.67;;;;;;;;;;4415605;32;318603;-89
2022/12/17 13:35:16;;;;;;;30.67;21.67;;;;;;;;;;4405091;32;318639;-91
2022/12/17 13:37:51;;;;;;;29.87;22.67;;;;;;;;;;4416324;32;318932;-89
2022/12/17 13:40:31;;;;;;;43.40;21.67;;;;;;;;;;4403093;32;419311;-92
2022/12/17 13:42:59;;;;;;;18.40;12.33;;;;;;;;;;4410093;32;318346;-89
2022/12/17 13:45:27;;;;;;;16.70;10.23;;;;;;;;;;4416256;32;318760;-86
2022/12/17 13:47:57;;;;;;;13.33;9.87;;;;;;;;;;4407292;32;318963;-86
2022/12/17 13:50:27;;;;;;;16.20;9.33;;;;;;;;;;4416761;32;317894;-90
2022/12/17 13:52:55;;;;;;;17.93;11.10;;;;;;;;;;4406126;32;317968;-90
2022/12/17 13:55:24;;;;;;;57.70;35.60;;;;;;;;;;4417944;32;318702;-87
2022/12/17 13:57:52;;;;;;;37.57;22.57;;;;;;;;;;4407345;32;318903;-92
2022/12/17 14:00:23;;;;;;;34.20;23.30;;;;;;;;;;4416997;32;318965;-84
2022/12/17 14:02:50;;;;;;;35.47;22.57;;;;;;;;;;4403711;32;329183;-85
2022/12/17 14:05:31;;;;;;;43.53;21.80;;;;;;;;;;4416843;32;318692;-87
2022/12/17 14:08:01;;;;;;;21.07;14.97;;;;;;;;;;4406419;32;319041;-89
2022/12/17 14:10:29;;;;;;;22.67;14.23;;;;;;;;;;4416714;32;318730;-85
2022/12/17 14:13:03;;;;;;;23.33;14.00;;;;;;;;;;4406354;32;318759;-79
2022/12/17 14:15:31;;;;;;;19.87;12.67;;;;;;;;;;4416122;32;318868;-84
2022/12/17 14:17:59;;;;;;;17.97;12.30;;;;;;;;;;4404563;32;318677;-86
2022/12/17 14:20:31;;;;;;;17.37;10.87;;;;;;;;;;4416849;32;318658;-89
2022/12/17 14:23:03;;;;;;;21.13;12.23;;;;;;;;;;4406312;32;317590;-81
2022/12/17 14:25:34;;;;;;;24.87;16.57;;;;;;;;;;4415299;32;318914;-87
2022/12/17 14:28:03;;;;;;;46.43;22.97;;;;;;;;;;4405187;32;319178;-86
2022/12/17 14:30:38;;;;;;;56.33;29.50;;;;;;;;;;4415954;32;318931;-86
2022/12/17 14:33:26;;;;;;;59.87;35.37;;;;;;;;;;4404576;32;324287;-86
2022/12/17 14:35:56;;;;;;;63.70;35.27;;;;;;;;;;4405593;32;319381;-87
2022/12/17 14:38:24;;;;;;;66.57;39.43;;;;;;;;;;4416142;32;323615;-87
2022/12/17 14:40:52;;;;;;;85.17;49.43;;;;;;;;;;4403367;32;400842;-86
2022/12/17 14:43:30;;;;;;;100.40;58.67;;;;;;;;;;4416138;32;318720;-86
2022/12/17 14:51:34;;;;;;;82.50;49.33;;;;;;;;;;4403144;32;391201;-86
2022/12/17 14:54:18;;;;;;;88.00;57.13;;;;;;;;;;4405993;32;329147;-86
2022/12/17 14:56:47;;;;;;;84.63;55.83;;;;;;;;;;4415446;32;318750;-87
2022/12/17 14:59:31;;;;;;;139.97;76.27;;;;;;;;;;4406190;32;319135;-87
2022/12/17 15:02:01;;;;;;;137.90;79.63;;;;;;;;;;4404211;32;319809;-86
2022/12/17 15:04:31;;;;;;;99.33;64.90;;;;;;;;;;4416121;32;319911;-86
2022/12/17 15:07:00;;;;;;;89.80;63.40;;;;;;;;;;4405526;32;318888;-86
2022/12/17 15:09:27;;;;;;;100.13;69.60;;;;;;;;;;4413885;32;318806;-85
2022/12/17 15:11:56;;;;;;;99.53;64.77;;;;;;;;;;4406106;32;319664;-86
2022/12/17 15:14:23;;;;;;;98.53;64.30;;;;;;;;;;4415727;32;318940;-86
2022/12/17 15:16:51;;;;;;;88.10;59.77;;;;;;;;;;4403074;32;318922;-85
2022/12/17 15:19:18;;;;;;;111.70;67.77;;;;;;;;;;4415924;32;319088;-94
2022/12/17 15:21:45;;;;;;;104.33;67.47;;;;;;;;;;4424222;32;319375;-87
2022/12/17 15:24:21;;;;;;;102.63;68.17;;;;;;;;;;4410741;32;319580;-92
2022/12/17 15:26:49;;;;;;;101.03;67.30;;;;;;;;;;4423410;32;320113;-90
2022/12/17 15:29:16;;;;;;;93.33;65.57;;;;;;;;;;4410926;32;419157;-91
2022/12/17 15:31:43;;;;;;;91.80;62.10;;;;;;;;;;4422987;32;318705;-87
2022/12/17 15:34:12;;;;;;;93.27;63.97;;;;;;;;;;4412549;32;318766;-96
2022/12/17 15:36:39;;;;;;;121.07;78.97;;;;;;;;;;4424324;32;318634;-82
2022/12/17 15:39:08;;;;;;;137.00;84.67;;;;;;;;;;4406904;32;319806;-89
2022/12/17 15:44:21;;;;;;;124.37;76.40;;;;;;;;;;4408485;32;389819;-88
2022/12/17 15:46:48;;;;;;;136.17;79.70;;;;;;;;;;4417477;32;319773;-84
2022/12/17 15:49:16;;;;;;;90.23;58.50;;;;;;;;;;4406378;32;422238;-81
2022/12/17 15:51:44;;;;;;;68.13;45.37;;;;;;;;;;4419547;32;319173;-86
2022/12/17 15:54:12;;;;;;;80.30;51.77;;;;;;;;;;4406072;32;318929;-83
2022/12/17 15:56:41;;;;;;;81.17;54.53;;;;;;;;;;4422624;32;318873;-80
2022/12/17 15:59:09;;;;;;;83.00;54.10;;;;;;;;;;4405976;32;318698;-89
2022/12/17 16:01:37;;;;;;;91.73;55.40;;;;;;;;;;4418106;32;357526;-89
2022/12/17 16:04:04;;;;;;;75.50;51.70;;;;;;;;;;4407929;32;319217;-83
2022/12/17 16:06:33;;;;;;;79.80;53.87;;;;;;;;;;4417084;32;319176;-80
2022/12/17 16:09:01;;;;;;;78.93;55.40;;;;;;;;;;4406347;32;319293;-80
2022/12/17 16:11:28;;;;;;;84.87;59.37;;;;;;;;;;4418694;32;318769;-81
2022/12/17 16:13:57;;;;;;;96.20;62.47;;;;;;;;;;4405421;32;319081;-93
2022/12/17 16:16:24;;;;;;;96.33;62.50;;;;;;;;;;4420052;32;318924;-92
2022/12/17 16:18:52;;;;;;;96.47;65.93;;;;;;;;;;4407514;32;319149;-85
2022/12/17 16:21:19;;;;;;;139.43;86.03;;;;;;;;;;4416473;32;319014;-87
2022/12/17 16:23:47;;;;;;;165.27;94.77;;;;;;;;;;4418520;32;320341;-88
2022/12/17 16:26:14;;;;;;;148.00;88.77;;;;;;;;;;4406921;32;321318;-86
2022/12/17 16:28:42;;;;;;;128.90;84.20;;;;;;;;;;4417628;32;320128;-86
2022/12/17 16:31:13;;;;;;;125.70;80.03;;;;;;;;;;4407583;32;319725;-89
2022/12/17 16:33:42;;;;;;;163.33;98.00;;;;;;;;;;4416984;32;320027;-88
2022/12/17 16:36:12;;;;;;;140.80;90.10;;;;;;;;;;4407786;32;319672;-87
2022/12/17 16:38:44;;;;;;;133.50;84.27;;;;;;;;;;4417003;32;320098;-86
2022/12/17 16:41:12;;;;;;;117.60;79.90;;;;;;;;;;4407341;32;319968;-87
2022/12/17 16:43:39;;;;;;;104.83;70.63;;;;;;;;;;4417774;32;320157;-90
2022/12/17 16:46:26;;;;;;;107.87;73.17;;;;;;;;;;4406134;32;319854;-90
2022/12/17 16:48:54;;;;;;;96.20;62.77;;;;;;;;;;4405945;32;319921;-89
2022/12/17 16:51:23;;;;;;;80.10;49.57;;;;;;;;;;4416762;32;318769;-93
2022/12/17 16:53:50;;;;;;;61.53;41.30;;;;;;;;;;4406477;32;318511;-86
2022/12/17 16:56:19;;;;;;;55.53;35.17;;;;;;;;;;4415788;32;318724;-91
2022/12/17 16:58:47;;;;;;;63.13;33.70;;;;;;;;;;4416683;32;318798;-92
2022/12/17 17:01:19;;;;;;;60.57;35.83;;;;;;;;;;4406752;32;319109;-92
2022/12/17 17:03:49;;;;;;;57.37;36.77;;;;;;;;;;4417045;32;319179;-91
2022/12/17 17:06:18;;;;;;;70.33;40.53;;;;;;;;;;4405051;32;418730;-91
2022/12/17 17:08:46;;;;;;;76.00;46.90;;;;;;;;;;4416898;32;319130;-91
2022/12/17 17:11:15;;;;;;;40.13;25.50;;;;;;;;;;4407599;32;319031;-90
2022/12/17 17:13:43;;;;;;;69.30;45.37;;;;;;;;;;4417147;32;319008;-90
2022/12/17 17:16:11;;;;;;;73.77;45.03;;;;;;;;;;4405977;32;318714;-91
2022/12/17 17:18:39;;;;;;;79.07;51.43;;;;;;;;;;4417038;32;319021;-92
2022/12/17 17:21:24;;;;;;;82.33;50.43;;;;;;;;;;4406363;32;319077;-87
2022/12/17 17:23:53;;;;;;;87.70;49.37;;;;;;;;;;4403229;32;318833;-90
2022/12/17 17:26:22;;;;;;;94.57;58.43;;;;;;;;;;4416606;32;318808;-93
2022/12/17 17:28:49;;;;;;;93.33;59.73;;;;;;;;;;4416400;32;318904;-90
2022/12/17 17:31:18;;;;;;;117.27;70.70;;;;;;;;;;4401736;32;418043;-92
2022/12/17 17:33:47;;;;;;;97.63;63.37;;;;;;;;;;4416889;32;319755;-92
2022/12/17 17:36:19;;;;;;;95.07;62.87;;;;;;;;;;4406007;32;326152;-90
2022/12/17 17:38:47;;;;;;;102.97;71.80;;;;;;;;;;4416825;32;319053;-86
2022/12/17 17:41:16;;;;;;;91.53;57.27;;;;;;;;;;4407378;32;319803;-88
2022/12/17 17:43:44;;;;;;;80.60;52.73;;;;;;;;;;4417264;32;324287;-89
2022/12/17 17:46:14;;;;;;;94.57;57.17;;;;;;;;;;4406247;32;319372;-89
2022/12/17 17:48:42;;;;;;;85.70;54.90;;;;;;;;;;4417115;32;319107;-89
2022/12/17 17:51:13;;;;;;;59.53;35.60;;;;;;;;;;4406830;32;318845;-80
2022/12/17 17:53:42;;;;;;;51.40;30.97;;;;;;;;;;4416568;32;318993;-90
2022/12/17 17:56:14;;;;;;;38.00;23.43;;;;;;;;;;4405422;32;318848;-90
2022/12/17 17:58:42;;;;;;;36.97;21.37;;;;;;;;;;4416765;32;318776;-82
2022/12/17 18:01:11;;;;;;;35.50;20.03;;;;;;;;;;4406368;32;318982;-91
2022/12/17 18:03:38;;;;;;;30.90;20.60;;;;;;;;;;4416258;32;318707;-85
2022/12/17 18:06:08;;;;;;;59.13;34.93;;;;;;;;;;4406030;32;319062;-89
2022/12/17 18:08:36;;;;;;;66.97;44.20;;;;;;;;;;4416309;32;318790;-91
2022/12/17 18:11:08;;;;;;;57.27;36.10;;;;;;;;;;4405946;32;318955;-91
2022/12/17 18:16:21;;;;;;;93.93;58.70;;;;;;;;;;4404255;32;389105;-91
2022/12/17 18:18:49;;;;;;;93.77;59.10;;;;;;;;;;4414070;32;319004;-90
2022/12/17 18:21:19;;;;;;;113.57;70.07;;;;;;;;;;4402141;32;417431;-89
2022/12/17 18:23:47;;;;;;;110.10;70.70;;;;;;;;;;4415678;32;319803;-86
2022/12/17 18:26:18;;;;;;;115.77;70.97;;;;;;;;;;4405910;32;319979;-91
2022/12/17 18:28:47;;;;;;;111.83;68.40;;;;;;;;;;4415384;32;320006;-91
2022/12/17 18:31:16;;;;;;;102.37;66.87;;;;;;;;;;4404675;32;319988;-93
2022/12/17 18:33:45;;;;;;;107.97;68.40;;;;;;;;;;4415922;32;319812;-89
2022/12/17 18:36:15;;;;;;;94.23;60.77;;;;;;;;;;4405234;32;319944;-91
2022/12/17 18:38:43;;;;;;;74.03;48.87;;;;;;;;;;4416188;32;318813;-92
2022/12/17 18:44:02;;;;;;;67.80;43.90;;;;;;;;;;4405611;32;318852;-91
2022/12/17 18:46:30;;;;;;;68.80;44.73;;;;;;;;;;4416391;32;318834;-90
2022/12/17 18:48:59;;;;;;;84.80;50.50;;;;;;;;;;4403497;32;318919;-88
2022/12/17 18:51:27;;;;;;;82.03;51.13;;;;;;;;;;4416209;32;318822;-91
2022/12/17 18:53:57;;;;;;;80.27;50.30;;;;;;;;;;4405495;32;318883;-83
2022/12/17 18:56:24;;;;;;;77.30;49.13;;;;;;;;;;4416547;32;318876;-89
2022/12/17 18:58:53;;;;;;;83.57;52.80;;;;;;;;;;4404477;32;351236;-91
2022/12/17 19:01:25;;;;;;;93.47;58.07;;;;;;;;;;4415922;32;318703;-89
2022/12/17 19:03:53;;;;;;;109.00;60.10;;;;;;;;;;4406223;32;318887;-91
2022/12/17 19:06:21;;;;;;;96.20;62.77;;;;;;;;;;4419537;32;319889;-89
2022/12/17 19:08:49;;;;;;;96.03;59.63;;;;;;;;;;4418544;32;336669;-86
2022/12/17 19:11:20;;;;;;;106.33;69.33;;;;;;;;;;4405391;32;418438;-84
2022/12/17 19:13:48;;;;;;;98.20;64.43;;;;;;;;;;4419254;32;319730;-92
2022/12/17 19:16:18;;;;;;;75.33;54.20;;;;;;;;;;4405120;32;417994;-89
2022/12/17 19:18:51;;;;;;;78.37;53.40;;;;;;;;;;4418553;32;319007;-84
2022/12/17 19:21:20;;;;;;;93.67;63.97;;;;;;;;;;4404804;32;417979;-85
2022/12/17 19:23:48;;;;;;;103.80;73.23;;;;;;;;;;4417040;32;318914;-90
2022/12/17 19:26:18;;;;;;;111.90;71.50;;;;;;;;;;4405760;32;419408;-89
2022/12/17 19:28:49;;;;;;;123.63;81.20;;;;;;;;;;4416803;32;319954;-89
2022/12/17 19:31:18;;;;;;;136.40;89.07;;;;;;;;;;4404762;32;419316;-86
2022/12/17 19:33:48;;;;;;;145.53;94.53;;;;;;;;;;4418013;32;319869;-86
2022/12/17 19:36:18;;;;;;;150.80;93.93;;;;;;;;;;4404664;32;419442;-88
2022/12/17 19:38:46;;;;;;;138.47;91.67;;;;;;;;;;4418512;32;319836;-88
2022/12/17 19:41:16;;;;;;;134.73;89.33;;;;;;;;;;4406500;32;341587;-89
2022/12/17 19:43:45;;;;;;;143.70;93.70;;;;;;;;;;4419021;32;320075;-90
2022/12/17 19:46:14;;;;;;;160.53;102.40;;;;;;;;;;4407756;32;320162;-91
2022/12/17 19:48:43;;;;;;;186.87;113.17;;;;;;;;;;4418105;32;321335;-86
2022/12/17 19:51:13;;;;;;;174.80;108.67;;;;;;;;;;4406854;32;320820;-85
2022/12/17 19:53:42;;;;;;;174.23;104.80;;;;;;;;;;4416581;32;320893;-86
2022/12/17 19:56:11;;;;;;;153.20;95.53;;;;;;;;;;4408391;32;321159;-88
2022/12/17 19:58:40;;;;;;;115.10;76.40;;;;;;;;;;4416316;32;320069;-83
2022/12/17 20:01:08;;;;;;;94.50;65.27;;;;;;;;;;4406514;32;320261;-87
2022/12/17 20:03:35;;;;;;;81.90;55.03;;;;;;;;;;4418728;32;318778;-90
2022/12/17 20:06:03;;;;;;;45.90;32.90;;;;;;;;;;4406699;32;318938;-86
2022/12/17 20:08:34;;;;;;;101.13;68.93;;;;;;;;;;4417444;32;318923;-85
2022/12/17 20:11:03;;;;;;;129.33;80.90;;;;;;;;;;4407777;32;319646;-86
2022/12/17 20:13:53;;;;;;;132.83;87.73;;;;;;;;;;4408594;32;319869;-83
2022/12/17 20:16:21;;;;;;;128.03;83.47;;;;;;;;;;4417402;32;359163;-84
2022/12/17 20:18:48;;;;;;;118.17;79.83;;;;;;;;;;4419507;32;319788;-84
2022/12/17 20:21:16;;;;;;;126.40;86.97;;;;;;;;;;4405800;32;419084;-85
2022/12/17 20:23:46;;;;;;;127.03;84.53;;;;;;;;;;4417199;32;319939;-86
2022/12/17 20:26:14;;;;;;;122.87;81.70;;;;;;;;;;4407695;32;320060;-86
2022/12/17 20:28:41;;;;;;;149.27;89.47;;;;;;;;;;4418194;32;319980;-86
2022/12/17 20:31:09;;;;;;;125.30;81.30;;;;;;;;;;4406066;32;320069;-81
2022/12/17 20:33:36;;;;;;;133.90;86.13;;;;;;;;;;4418237;32;320241;-85
2022/12/17 20:36:06;;;;;;;128.33;85.10;;;;;;;;;;4404979;32;326357;-79
2022/12/17 20:38:33;;;;;;;128.77;79.87;;;;;;;;;;4418122;32;319970;-91
2022/12/17 20:41:08;;;;;;;129.60;85.97;;;;;;;;;;4405886;32;320139;-88
2022/12/17 20:43:35;;;;;;;131.20;90.93;;;;;;;;;;4418460;32;319975;-80
2022/12/17 20:46:03;;;;;;;158.60;98.03;;;;;;;;;;4406731;32;320071;-81
2022/12/17 20:48:30;;;;;;;140.47;84.77;;;;;;;;;;4416140;32;319842;-88
2022/12/17 20:50:58;;;;;;;134.17;84.57;;;;;;;;;;4406838;32;319812;-88
2022/12/17 20:53:25;;;;;;;126.97;82.67;;;;;;;;;;4415623;32;319950;-88
2022/12/17 20:56:01;;;;;;;118.97;78.77;;;;;;;;;;4406355;32;320258;-86
2022/12/17 20:58:29;;;;;;;134.27;90.03;;;;;;;;;;4416874;32;319936;-87
2022/12/17 21:01:06;;;;;;;167.77;104.20;;;;;;;;;;4404683;32;359110;-84
2022/12/17 21:03:34;;;;;;;178.53;106.70;;;;;;;;;;4416011;32;350105;-87
2022/12/17 21:06:07;;;;;;;166.40;98.93;;;;;;;;;;4404839;32;320844;-86
2022/12/17 21:08:35;;;;;;;121.50;75.73;;;;;;;;;;4417492;32;320053;-84
2022/12/17 21:11:02;;;;;;;99.57;65.70;;;;;;;;;;4406407;32;319844;-87
2022/12/17 21:13:31;;;;;;;96.90;58.10;;;;;;;;;;4415800;32;319269;-88
2022/12/17 21:16:01;;;;;;;101.20;60.90;;;;;;;;;;4407678;32;319151;-84
2022/12/17 21:18:30;;;;;;;112.90;67.30;;;;;;;;;;4416679;32;320041;-89
2022/12/17 21:21:00;;;;;;;144.53;89.53;;;;;;;;;;4404997;32;320238;-89
2022/12/17 21:23:28;;;;;;;182.90;111.50;;;;;;;;;;4417053;32;319930;-90
2022/12/17 21:26:04;;;;;;;102.53;67.27;;;;;;;;;;4405870;32;321000;-87
2022/12/17 21:28:34;;;;;;;99.50;57.53;;;;;;;;;;4417296;32;319903;-88
2022/12/17 21:31:02;;;;;;;163.67;103.80;;;;;;;;;;4404116;32;318846;-88
2022/12/17 21:33:30;;;;;;;167.77;106.17;;;;;;;;;;4417397;32;320872;-86
2022/12/17 21:36:01;;;;;;;166.80;104.23;;;;;;;;;;4397789;32;321101;-85
2022/12/17 21:38:29;;;;;;;154.23;101.03;;;;;;;;;;4402638;32;321068;-86
2022/12/17 21:41:03;;;;;;;143.03;96.17;;;;;;;;;;4405758;32;321204;-84
2022/12/17 21:43:32;;;;;;;143.53;92.53;;;;;;;;;;4416037;32;323792;-85
2022/12/17 21:46:00;;;;;;;134.13;80.67;;;;;;;;;;4405638;32;319901;-87
2022/12/17 21:48:27;;;;;;;111.53;73.10;;;;;;;;;;4417262;32;320013;-87
2022/12/17 21:50:55;;;;;;;114.07;70.63;;;;;;;;;;4406775;32;319808;-85
2022/12/17 21:53:22;;;;;;;110.70;67.20;;;;;;;;;;4415754;32;319819;-87
2022/12/17 21:55:50;;;;;;;104.83;67.23;;;;;;;;;;4415406;32;320119;-85
2022/12/17 21:58:18;;;;;;;101.17;66.67;;;;;;;;;;4416392;32;320016;-86
2022/12/17 22:00:47;;;;;;;108.70;73.40;;;;;;;;;;4415278;32;319919;-86
2022/12/17 22:03:14;;;;;;;105.23;74.33;;;;;;;;;;4404958;32;320925;-84
2022/12/17 22:05:42;;;;;;;118.77;76.30;;;;;;;;;;4415831;32;319858;-85
2022/12/17 22:08:11;;;;;;;123.03;77.57;;;;;;;;;;4406796;32;319913;-84
2022/12/17 22:10:41;;;;;;;101.27;70.97;;;;;;;;;;4414736;32;319810;-89
2022/12/17 22:15:56;;;;;;;116.17;79.10;;;;;;;;;;4404737;32;319974;-85
2022/12/17 22:18:23;;;;;;;122.63;86.23;;;;;;;;;;4415823;32;320050;-86
2022/12/17 22:20:58;;;;;;;134.07;93.00;;;;;;;;;;4405645;32;320380;-85
2022/12/17 22:23:25;;;;;;;122.37;87.63;;;;;;;;;;4415480;32;319966;-88
2022/12/17 22:25:53;;;;;;;117.90;79.60;;;;;;;;;;4405467;32;319837;-89
2022/12/17 22:28:20;;;;;;;111.40;78.47;;;;;;;;;;4414000;32;320126;-87
2022/12/17 22:33:34;;;;;;;119.57;76.20;;;;;;;;;;4403216;32;390122;-85
2022/12/17 22:36:02;;;;;;;107.80;72.60;;;;;;;;;;4404769;32;319997;-85
2022/12/17 22:38:29;;;;;;;90.77;60.33;;;;;;;;;;4414894;32;319896;-87
2022/12/17 22:41:05;;;;;;;78.27;56.03;;;;;;;;;;4406183;32;319005;-87
2022/12/17 22:43:31;;;;;;;72.73;47.90;;;;;;;;;;4416060;32;318941;-86
2022/12/17 22:46:00;;;;;;;78.57;53.70;;;;;;;;;;4406096;32;318987;-88
2022/12/17 22:48:28;;;;;;;93.43;65.90;;;;;;;;;;4415474;32;319208;-88
2022/12/17 22:50:57;;;;;;;91.03;64.37;;;;;;;;;;4402937;32;318932;-86
2022/12/17 22:53:25;;;;;;;94.97;67.50;;;;;;;;;;4416628;32;318776;-87
2022/12/17 22:55:53;;;;;;;80.97;57.57;;;;;;;;;;4405543;32;318774;-85
2022/12/17 22:58:20;;;;;;;72.77;48.93;;;;;;;;;;4414663;32;318987;-84
2022/12/17 23:00:48;;;;;;;60.93;43.33;;;;;;;;;;4416550;32;318788;-85
2022/12/17 23:03:16;;;;;;;57.97;38.47;;;;;;;;;;4405335;32;318923;-87
2022/12/17 23:05:44;;;;;;;62.90;38.00;;;;;;;;;;4416565;32;318886;-87
2022/12/17 23:08:13;;;;;;;62.27;44.40;;;;;;;;;;4404590;32;319234;-89
2022/12/17 23:10:40;;;;;;;64.60;41.13;;;;;;;;;;4415162;32;318678;-89
2022/12/17 23:13:07;;;;;;;70.43;52.77;;;;;;;;;;4406233;32;319091;-88
2022/12/17 23:15:36;;;;;;;68.13;49.87;;;;;;;;;;4416544;32;321679;-87
2022/12/17 23:18:06;;;;;;;54.17;38.10;;;;;;;;;;4405971;32;327173;-87
2022/12/17 23:20:35;;;;;;;63.93;40.07;;;;;;;;;;4415278;32;318781;-89
2022/12/17 23:23:02;;;;;;;83.90;52.53;;;;;;;;;;4403647;32;318891;-88
2022/12/17 23:25:31;;;;;;;66.37;42.67;;;;;;;;;;4415822;32;318993;-84
2022/12/17 23:27:59;;;;;;;63.33;43.33;;;;;;;;;;4404498;32;318820;-88
2022/12/17 23:30:27;;;;;;;72.33;49.90;;;;;;;;;;4416084;32;318823;-88
2022/12/17 23:32:54;;;;;;;80.67;53.83;;;;;;;;;;4403296;32;351133;-90
2022/12/17 23:35:21;;;;;;;90.63;55.43;;;;;;;;;;4415888;32;318770;-84
2022/12/17 23:37:49;;;;;;;101.93;64.23;;;;;;;;;;4415536;32;318914;-87
2022/12/17 23:40:16;;;;;;;84.53;58.50;;;;;;;;;;4402826;32;419315;-88
2022/12/17 23:42:45;;;;;;;82.00;54.57;;;;;;;;;;4415375;32;318829;-88
2022/12/17 23:45:13;;;;;;;80.63;51.90;;;;;;;;;;4405375;32;318956;-87
2022/12/17 23:47:41;;;;;;;82.70;51.97;;;;;;;;;;4415752;32;318936;-89
2022/12/17 23:50:10;;;;;;;61.10;41.80;;;;;;;;;;4406246;32;318845;-87
2022/12/17 23:52:38;;;;;;;68.97;40.27;;;;;;;;;;4417689;32;318838;-87
2022/12/17 23:55:06;;;;;;;67.70;40.77;;;;;;;;;;4408103;32;318813;-86
2022/12/17 23:57:34;;;;;;;65.40;42.90;;;;;;;;;;4418103;32;318836;-88
